Station Historical Data
Daily Summary for November 12, 2017 Units:  Metric    English   Both
« Previous Day
Next Day »
Daily Weekly Monthly Yearly Custom
  High: Low: Average:
Temperature: 8.5 °C 6.6 °C 7.8 °C
Dew Point: 7.3 °C 1.6 °C 4.5 °C
Humidity: 92% 66% 80%
Wind Speed: 9.3km/h 0km/h 1.1km/h
Wind Gust: 9.3km/h - -
Wind- - West
Pressure: 1028.7 hPa 1025.6 hPa -
Precipitation: 3.05 mm    
Historical Graphs
 
 
Tabular Data for November 12, 2017
Time Temperature Dew Point Pressure Wind Wind Speed Wind Gust Humidity Rainfall Rate (Hourly) solar Conditions
00:00 7.6 °C 2.1 °C 1028.3 hPa West 1.9 km/h 1.9 km/h 68% 0 mm WeatherDisplay:10.37 W/m2 OVC
00:05 7.6 °C 1.9 °C 1028.7 hPa West 9.3 km/h 9.3 km/h 67% 0 mm WeatherDisplay:10.37 W/m2 OVC
00:10 7.6 °C 2.1 °C 1028.7 hPa WNW 1.9 km/h 1.9 km/h 68% 0 mm WeatherDisplay:10.37 W/m2 OVC
00:15 7.6 °C 2.1 °C 1028.7 hPa Calm   0.2 km/h 68% 0 mm WeatherDisplay:10.37 W/m2 OVC
00:21 7.6 °C 1.9 °C 1028.7 hPa WNW 3.7 km/h 3.7 km/h 67% 0 mm WeatherDisplay:10.37 W/m2 OVC
00:26 7.6 °C 1.9 °C 1028.7 hPa West 1.9 km/h 1.9 km/h 67% 0 mm WeatherDisplay:10.37 W/m2 OVC
00:31 7.6 °C 2.1 °C 1028.7 hPa WNW 1.9 km/h   68% 0 mm WeatherDisplay:10.37 W/m2 OVC
00:36 7.6 °C 2.1 °C 1028.7 hPa West 1.9 km/h 1.9 km/h 68% 0 mm WeatherDisplay:10.37 W/m2 OVC
00:41 7.6 °C 1.8 °C 1028.7 hPa WNW 5.6 km/h 5.6 km/h 67% 0 mm WeatherDisplay:10.37 W/m2 OVC
00:46 7.6 °C 2 °C 1028.7 hPa West 1.9 km/h 1.9 km/h 68% 0 mm WeatherDisplay:10.37 W/m2 OVC
00:51 7.5 °C 1.8 °C 1028.7 hPa West 5.6 km/h 5.6 km/h 67% 0 mm WeatherDisplay:10.37 W/m2 OVC
00:56 7.5 °C 1.8 °C 1028.7 hPa West 5.6 km/h 5.6 km/h 67% 0 mm WeatherDisplay:10.37 W/m2 OVC
01:01 7.5 °C 1.8 °C 1027.7 hPa West 7.4 km/h 7.4 km/h 67% 0 mm WeatherDisplay:10.37 W/m2 OVC
01:06 7.5 °C 1.8 °C 1027.7 hPa West 5.6 km/h 5.6 km/h 67% 0 mm WeatherDisplay:10.37 W/m2 OVC
01:11 7.6 °C 2 °C 1027.7 hPa WNW 1.9 km/h 1.9 km/h 68% 0 mm WeatherDisplay:10.37 W/m2 OVC
01:16 7.5 °C 1.8 °C 1027.7 hPa NW 5.6 km/h 5.6 km/h 67% 0 mm WeatherDisplay:10.37 W/m2 OVC
01:21 7.6 °C 2 °C 1027.7 hPa WNW 7.4 km/h 7.4 km/h 68% 0 mm WeatherDisplay:10.37 W/m2 OVC
01:26 7.6 °C 2 °C 1027.7 hPa Calm     68% 0 mm WeatherDisplay:10.37 W/m2 OVC
01:31 7.6 °C 1.8 °C 1027.7 hPa West 3.7 km/h 3.7 km/h 67% 0 mm WeatherDisplay:10.37 W/m2 OVC
01:36 7.6 °C 1.8 °C 1027.7 hPa West 7.4 km/h 7.4 km/h 67% 0 mm WeatherDisplay:10.37 W/m2 OVC
01:41 7.6 °C 1.8 °C 1027.7 hPa WNW 1.9 km/h   67% 0 mm WeatherDisplay:10.37 W/m2 OVC
01:46 7.6 °C 1.8 °C 1027.7 hPa West 5.6 km/h 5.6 km/h 67% 0 mm WeatherDisplay:10.37 W/m2 OVC
01:51 7.6 °C 1.6 °C 1027.7 hPa SSW 7.4 km/h 7.4 km/h 66% 0 mm WeatherDisplay:10.37 W/m2 OVC
01:56 7.6 °C 1.6 °C 1027.7 hPa SSW 8.2 km/h 8.2 km/h 66% 0 mm WeatherDisplay:10.37 W/m2 OVC
02:01 7.6 °C 1.8 °C 1027 hPa WSW 5.6 km/h 5.6 km/h 67% 0 mm WeatherDisplay:10.37 W/m2 OVC
02:06 7.6 °C 1.8 °C 1027 hPa West 3.7 km/h 3.7 km/h 67% 0 mm WeatherDisplay:10.37 W/m2 OVC
02:11 7.6 °C 1.8 °C 1027 hPa West 1.9 km/h 1.9 km/h 67% 0 mm WeatherDisplay:10.37 W/m2 OVC
02:16 7.6 °C 1.8 °C 1027 hPa West 1.9 km/h 1.9 km/h 67% 0 mm WeatherDisplay:10.37 W/m2 OVC
02:21 7.6 °C 1.8 °C 1027 hPa Calm     67% 0 mm WeatherDisplay:10.37 W/m2 OVC
02:26 7.6 °C 2 °C 1027 hPa West 1.9 km/h 1.9 km/h 68% 0 mm WeatherDisplay:10.37 W/m2 OVC
02:31 7.6 °C 1.8 °C 1027 hPa Calm     67% 0 mm WeatherDisplay:10.37 W/m2 OVC
02:37 7.6 °C 1.8 °C 1027 hPa WNW 1.9 km/h   67% 0 mm WeatherDisplay:10.37 W/m2 OVC
02:42 7.6 °C 1.6 °C 1027 hPa Calm     66% 0 mm WeatherDisplay:10.37 W/m2 OVC
02:47 7.6 °C 1.8 °C 1027 hPa WNW 1.9 km/h   67% 0 mm WeatherDisplay:10.37 W/m2 OVC
02:52 7.6 °C 2 °C 1027 hPa NW 1.9 km/h 1.9 km/h 68% 0 mm WeatherDisplay:10.37 W/m2 OVC
02:57 7.6 °C 1.6 °C 1027 hPa WNW 1.9 km/h 1.9 km/h 66% 0 mm WeatherDisplay:10.37 W/m2 OVC
03:02 7.6 °C 1.6 °C 1027.3 hPa WSW 5.6 km/h 5.6 km/h 66% 0 mm WeatherDisplay:10.37 W/m2 OVC
03:07 7.6 °C 1.8 °C 1027.3 hPa WNW 1.9 km/h 1.9 km/h 67% 0 mm WeatherDisplay:10.37 W/m2 OVC
03:12 7.6 °C 1.8 °C 1027.3 hPa West 7.4 km/h 7.4 km/h 67% 0 mm WeatherDisplay:10.37 W/m2 OVC
03:17 7.6 °C 1.8 °C 1027.3 hPa WSW 3.7 km/h 3.7 km/h 67% 0 mm WeatherDisplay:10.37 W/m2 OVC
03:22 7.6 °C 1.8 °C 1027.3 hPa West 1.9 km/h 1.9 km/h 67% 0 mm WeatherDisplay:10.37 W/m2 OVC
03:27 7.6 °C 1.8 °C 1027.3 hPa WNW 5.6 km/h 5.6 km/h 67% 0 mm WeatherDisplay:10.37 W/m2 OVC
03:32 7.6 °C 1.8 °C 1027.3 hPa WNW 1.6 km/h   67% 0 mm WeatherDisplay:10.37 W/m2 OVC
03:37 7.5 °C 1.9 °C 1027.3 hPa Calm   0.2 km/h 68% 0 mm WeatherDisplay:10.37 W/m2 OVC
03:42 7.5 °C 1.9 °C 1027.3 hPa WNW 1.9 km/h 1.9 km/h 68% 0 mm WeatherDisplay:10.37 W/m2 OVC
03:47 7.5 °C 1.9 °C 1027.3 hPa WNW 3.7 km/h 3.7 km/h 68% 0 mm WeatherDisplay:10.37 W/m2 OVC
03:52 7.5 °C 1.9 °C 1027.3 hPa West 7.4 km/h 7.4 km/h 68% 0 mm WeatherDisplay:10.37 W/m2 OVC
03:57 7.5 °C 1.9 °C 1027.3 hPa West 3.7 km/h 3.7 km/h 68% 0 mm WeatherDisplay:10.37 W/m2 OVC
04:02 7.5 °C 2.2 °C 1027.3 hPa Calm     69% 0 mm WeatherDisplay:10.37 W/m2 OVC
04:07 7.5 °C 2.2 °C 1027.3 hPa West 1.9 km/h   69% 0 mm WeatherDisplay:10.37 W/m2 OVC
04:12 7.4 °C 1.9 °C 1027.3 hPa West 3.7 km/h 3.7 km/h 68% 0 mm WeatherDisplay:10.37 W/m2 OVC
04:18 7.4 °C 2.1 °C 1027.3 hPa West 1.9 km/h   69% 0 mm WeatherDisplay:10.37 W/m2 OVC
04:23 7.4 °C 2.1 °C 1027.3 hPa West 1.9 km/h 1.9 km/h 69% 0 mm WeatherDisplay:10.37 W/m2 OVC
04:28 7.4 °C 1.9 °C 1027.3 hPa West 7.4 km/h 7.4 km/h 68% 0 mm WeatherDisplay:10.37 W/m2 OVC
04:29 7.4 °C 1.9 °C 1027.3 hPa WNW 3.7 km/h 3.7 km/h 68% 0 mm WeatherDisplay:10.37 W/m2 OVC
04:34 7.4 °C 2.1 °C 1027.3 hPa West 1.9 km/h   69% 0 mm WeatherDisplay:10.37 W/m2 OVC
04:39 7.4 °C 2.1 °C 1027.3 hPa West 1.9 km/h 1.9 km/h 69% 0 mm WeatherDisplay:10.37 W/m2 OVC
04:44 7.4 °C 2.1 °C 1027.3 hPa Calm     69% 0 mm WeatherDisplay:10.37 W/m2 OVC
04:49 7.4 °C 2.1 °C 1027.3 hPa West 1.9 km/h   69% 0 mm WeatherDisplay:10.37 W/m2 OVC
04:54 7.3 °C 1.8 °C 1027.3 hPa Calm     68% 0 mm WeatherDisplay:10.37 W/m2 OVC
04:59 7.4 °C 2.1 °C 1027.3 hPa Calm     69% 0 mm WeatherDisplay:10.37 W/m2 OVC
05:04 7.3 °C 1.8 °C 1027.3 hPa West 1.9 km/h 1.9 km/h 68% 0 mm WeatherDisplay:10.37 W/m2 OVC
05:14 7.3 °C 1.8 °C 1027.3 hPa Calm     68% 0 mm WeatherDisplay:10.37 W/m2 OVC
05:20 7.3 °C 1.8 °C 1027.3 hPa West 3.2 km/h 3.2 km/h 68% 0 mm WeatherDisplay:10.37 W/m2 OVC
05:25 7.3 °C 1.8 °C 1027.3 hPa Calm   4.8 km/h 68% 0 mm WeatherDisplay:10.37 W/m2 OVC
05:30 7.3 °C 1.6 °C 1027.3 hPa Calm   1.6 km/h 67% 0 mm WeatherDisplay:10.37 W/m2 OVC
05:35 7.3 °C 1.8 °C 1027.3 hPa Calm   3.2 km/h 68% 0 mm WeatherDisplay:10.37 W/m2 OVC
05:40 7.3 °C 1.8 °C 1027.3 hPa Calm     68% 0 mm WeatherDisplay:10.37 W/m2 OVC
05:45 7.3 °C 1.8 °C 1027.3 hPa Calm   1.6 km/h 68% 0 mm WeatherDisplay:10.37 W/m2 OVC
05:50 7.3 °C 1.6 °C 1027.3 hPa WNW 1.6 km/h 8 km/h 67% 0 mm WeatherDisplay:10.37 W/m2 OVC
05:55 7.2 °C 1.7 °C 1027.3 hPa Calm   1.6 km/h 68% 0 mm WeatherDisplay:10.37 W/m2 OVC
06:00 7.2 °C 1.9 °C 1027.3 hPa Calm   1.6 km/h 69% 0 mm WeatherDisplay:10.37 W/m2 OVC
06:05 7.2 °C 1.9 °C 1027.7 hPa Calm     69% 0 mm WeatherDisplay:10.37 W/m2 OVC
06:10 7.2 °C 1.7 °C 1027.7 hPa Calm   4.8 km/h 68% 0 mm WeatherDisplay:10.37 W/m2 OVC
06:15 7.2 °C 1.9 °C 1027.7 hPa Calm   3.2 km/h 69% 0 mm WeatherDisplay:10.37 W/m2 OVC
06:20 7.2 °C 1.9 °C 1027.7 hPa Calm   1.6 km/h 69% 0 mm WeatherDisplay:10.37 W/m2 OVC
06:25 7.2 °C 1.9 °C 1027.7 hPa Calm     69% 0 mm WeatherDisplay:10.37 W/m2 OVC
06:30 7.2 °C 1.9 °C 1027.7 hPa Calm     69% 0 mm WeatherDisplay:10.37 W/m2 OVC
06:35 7.2 °C 1.9 °C 1027.7 hPa Calm   1.6 km/h 69% 0 mm WeatherDisplay:10.37 W/m2 OVC
06:40 7.2 °C 1.7 °C 1027.7 hPa Calm   3.2 km/h 68% 0 mm WeatherDisplay:10.37 W/m2 OVC
06:45 7.2 °C 1.8 °C 1027.7 hPa Calm   1.6 km/h 69% 0 mm WeatherDisplay:10.37 W/m2 OVC
06:50 7.2 °C 1.8 °C 1027.7 hPa Calm   1.6 km/h 69% 0 mm WeatherDisplay:10.37 W/m2 OVC
06:55 7.2 °C 1.7 °C 1027.7 hPa Calm   1.6 km/h 68% 0 mm WeatherDisplay:10.37 W/m2 OVC
07:00 7.2 °C 1.7 °C 1027.7 hPa Calm   1.6 km/h 68% 0 mm WeatherDisplay:10.37 W/m2 OVC
07:05 7.2 °C 1.8 °C 1028 hPa NW 1.9 km/h 1.9 km/h 69% 0 mm WeatherDisplay:10.37 W/m2 OVC
07:10 7.1 °C 1.8 °C 1028 hPa Calm   1.6 km/h 69% 0 mm WeatherDisplay:10.37 W/m2 OVC
07:15 7.1 °C 1.8 °C 1028 hPa WNW 3.7 km/h 3.7 km/h 69% 0 mm WeatherDisplay:10.37 W/m2 OVC
07:20 7.1 °C 1.8 °C 1028 hPa WNW 1.9 km/h 1.9 km/h 69% 0 mm WeatherDisplay:10.37 W/m2 OVC
07:25 7.1 °C 1.8 °C 1028 hPa West 3.7 km/h 3.7 km/h 69% 0 mm WeatherDisplay:10.37 W/m2 OVC
07:30 7.1 °C 2 °C 1028 hPa WSW 3.2 km/h 3.2 km/h 70% 0 mm WeatherDisplay:10.37 W/m2 OVC
07:35 7.1 °C 1.9 °C 1028 hPa NNE 1.6 km/h   70% 0 mm WeatherDisplay:10.37 W/m2 OVC
07:40 7.1 °C 2 °C 1028 hPa WNW 1.9 km/h 1.9 km/h 70% 0 mm WeatherDisplay:10.37 W/m2 OVC
07:45 7.1 °C 2 °C 1028 hPa Calm     70% 0 mm WeatherDisplay:10.37 W/m2 OVC
07:50 7.1 °C 2 °C 1028 hPa WNW 1.9 km/h 1.9 km/h 70% 0 mm WeatherDisplay:10.37 W/m2 OVC
07:55 7.1 °C 2 °C 1028 hPa Calm     70% 0 mm WeatherDisplay:10.37 W/m2 OVC
08:00 7.2 °C 2.1 °C 1028 hPa West 1.9 km/h 1.9 km/h 70% 0 mm WeatherDisplay:10.37 W/m2 OVC
08:05 7.2 °C 2.3 °C 1028.7 hPa West 1.9 km/h   71% 0 mm WeatherDisplay:10.37 W/m2 OVC
08:10 7.2 °C 2.3 °C 1028.7 hPa Calm     71% 0 mm WeatherDisplay:10.37 W/m2 OVC
08:11 7.2 °C 2.5 °C 1028.7 hPa Calm     72% 0 mm WeatherDisplay:10.37 W/m2 OVC
08:16 7.3 °C 2.6 °C 1028.7 hPa Calm     72% 0 mm WeatherDisplay:10.37 W/m2 OVC
08:21 7.3 °C 2.4 °C 1028.7 hPa West 1.9 km/h 1.9 km/h 71% 0 mm WeatherDisplay:10.37 W/m2 OVC
08:26 7.3 °C 2.6 °C 1028.7 hPa West 1.6 km/h   72% 0 mm WeatherDisplay:10.37 W/m2 OVC
08:31 7.4 °C 2.7 °C 1028.7 hPa Calm     72% 0 mm WeatherDisplay:10.37 W/m2 OVC
08:36 7.5 °C 2.8 °C 1028.7 hPa West 3.2 km/h 3.2 km/h 72% 0 mm WeatherDisplay:10.37 W/m2 OVC
08:41 7.6 °C 2.6 °C 1028.7 hPa Calm   0.3 km/h 71% 0 mm WeatherDisplay:10.37 W/m2 OVC
08:47 7.5 °C 2.6 °C 1028.7 hPa West 1.9 km/h 1.9 km/h 71% 0 mm WeatherDisplay:10.37 W/m2 OVC
08:52 7.4 °C 2.7 °C 1028.7 hPa West 3.7 km/h 3.7 km/h 72% 0 mm WeatherDisplay:10.37 W/m2 OVC
08:57 7.3 °C 2.6 °C 1028.7 hPa WNW 1.9 km/h 1.9 km/h 72% 0 mm WeatherDisplay:10.37 W/m2 OVC
09:02 7.4 °C 2.7 °C 1028.3 hPa WNW 3.7 km/h 3.7 km/h 72% 0 mm WeatherDisplay:10.37 W/m2 OVC
09:07 7.4 °C 2.7 °C 1028.3 hPa SSE 3.7 km/h 3.7 km/h 72% 0 mm WeatherDisplay:10.37 W/m2 OVC
09:08 7.5 °C 2.9 °C 1028.3 hPa WNW 3.7 km/h   73% 0 mm WeatherDisplay:10.37 W/m2 OVC
09:13 7.6 °C 2.8 °C 1028.3 hPa West 1.9 km/h 1.9 km/h 72% 0 mm WeatherDisplay:10.37 W/m2 OVC
09:18 7.6 °C 2.8 °C 1028.3 hPa WNW 1.6 km/h   72% 0 mm WeatherDisplay:10.37 W/m2 OVC
09:23 7.6 °C 2.9 °C 1028.3 hPa WSW 3.7 km/h 3.7 km/h 72% 0 mm WeatherDisplay:10.37 W/m2 OVC
09:28 7.6 °C 2.9 °C 1028.3 hPa WNW 7.4 km/h 7.4 km/h 72% 0 mm WeatherDisplay:10.37 W/m2 OVC
09:33 7.6 °C 3.1 °C 1028.3 hPa West 1.9 km/h 1.9 km/h 73% 0 mm WeatherDisplay:10.37 W/m2 OVC
09:39 7.6 °C 2.9 °C 1028.3 hPa West 3.7 km/h 3.7 km/h 72% 0 mm WeatherDisplay:10.37 W/m2 OVC
09:44 7.7 °C 3 °C 1028.3 hPa WSW 1.9 km/h 1.9 km/h 72% 0 mm WeatherDisplay:10.37 W/m2 OVC
09:49 7.8 °C 2.8 °C 1028.3 hPa WNW 9.3 km/h 9.3 km/h 71% 0 mm WeatherDisplay:10.37 W/m2 OVC
09:54 7.8 °C 3.2 °C 1028.3 hPa Calm     73% 0 mm WeatherDisplay:10.37 W/m2 OVC
09:59 7.9 °C 3.4 °C 1028.3 hPa Calm     73% 0 mm WeatherDisplay:10.37 W/m2 OVC
10:04 8 °C 3.3 °C 1028.3 hPa West 1.9 km/h 1.9 km/h 72% 0 mm WeatherDisplay:10.37 W/m2 OVC
10:09 7.9 °C 3.2 °C 1028.3 hPa West 1.9 km/h 1.9 km/h 72% 0 mm WeatherDisplay:10.37 W/m2 OVC
10:14 8 °C 3.4 °C 1028.3 hPa West 1.9 km/h 1.9 km/h 73% 0 mm WeatherDisplay:10.37 W/m2 OVC
10:19 8 °C 3.4 °C 1028.3 hPa SSE 1.9 km/h 1.9 km/h 73% 0 mm WeatherDisplay:10.37 W/m2 OVC
10:24 8.1 °C 3.3 °C 1028.3 hPa West 1.9 km/h 1.9 km/h 72% 0 mm WeatherDisplay:10.37 W/m2 OVC
10:29 8 °C 3.3 °C 1028.3 hPa West 1.9 km/h 1.9 km/h 72% 0 mm WeatherDisplay:10.37 W/m2 OVC
10:34 8.1 °C 3.5 °C 1028.3 hPa West 1.9 km/h 1.9 km/h 73% 0 mm WeatherDisplay:10.37 W/m2 OVC
10:39 8.1 °C 3.5 °C 1028.3 hPa Calm     73% 0 mm WeatherDisplay:10.37 W/m2 OVC
10:44 8 °C 3.4 °C 1028.3 hPa Calm     73% 0 mm WeatherDisplay:10.37 W/m2 OVC
10:49 8.1 °C 3.5 °C 1028.3 hPa Calm     73% 0 mm WeatherDisplay:10.37 W/m2 OVC
10:54 8.1 °C 3.5 °C 1028.3 hPa Calm     73% 0 mm WeatherDisplay:10.37 W/m2 OVC
10:59 8.1 °C 3.9 °C 1028.3 hPa Calm     75% 0 mm WeatherDisplay:10.37 W/m2 OVC
11:04 8.2 °C 3.8 °C 1028.3 hPa Calm     74% 0 mm WeatherDisplay:10.37 W/m2 OVC
11:10 8.1 °C 3.8 °C 1028.3 hPa Calm     74% 0 mm WeatherDisplay:10.37 W/m2 OVC
11:15 8.1 °C 3.7 °C 1028.3 hPa Calm   1.6 km/h 74% 0 mm WeatherDisplay:10.37 W/m2 OVC
11:20 8.1 °C 3.5 °C 1028.3 hPa Calm   1.6 km/h 73% 0 mm WeatherDisplay:10.37 W/m2 OVC
11:25 8.1 °C 3.9 °C 1028.3 hPa Calm     75% 0 mm WeatherDisplay:10.37 W/m2 OVC
11:30 8.1 °C 4.3 °C 1028.3 hPa Calm     77% 0 mm WeatherDisplay:10.37 W/m2 OVC
11:35 8 °C 4.2 °C 1028.3 hPa Calm     77% 0 mm WeatherDisplay:10.37 W/m2 -RA
11:40 7.9 °C 4.7 °C 1028.3 hPa Calm     80% 0 mm WeatherDisplay:10.37 W/m2 -RA
11:45 7.8 °C 4.7 °C 1028.3 hPa Calm     81% 0 mm WeatherDisplay:10.37 W/m2 -RA
11:50 7.6 °C 4.7 °C 1028.3 hPa Calm     82% 0.25 mm WeatherDisplay:10.37 W/m2 -RA
11:55 7.3 °C 4.8 °C 1028.3 hPa Calm     84% 0.25 mm WeatherDisplay:10.37 W/m2 -RA
12:00 7.2 °C 4.7 °C 1028.3 hPa Calm     84% 0 mm WeatherDisplay:10.37 W/m2 -RA
12:05 6.9 °C 4.8 °C 1028.3 hPa Calm     86% 0 mm WeatherDisplay:10.37 W/m2 -RA
12:10 6.9 °C 4.9 °C 1028.3 hPa Calm     87% 0 mm WeatherDisplay:10.37 W/m2 -RA
12:15 6.9 °C 5.1 °C 1028.3 hPa Calm     88% 0 mm WeatherDisplay:10.37 W/m2 -RA
12:20 6.8 °C 5 °C 1028.3 hPa Calm     88% 0.25 mm WeatherDisplay:10.37 W/m2 -RA
12:25 6.8 °C 5 °C 1028.3 hPa Calm   1.6 km/h 88% 0 mm WeatherDisplay:10.37 W/m2 -RA
12:28 6.8 °C 5.2 °C 1028.3 hPa East 1.9 km/h   89% 1.27 mm WeatherDisplay:10.37 W/m2 -RA
12:33 6.8 °C 5.1 °C 1028 hPa NNW 1.9 km/h   89% 1.27 mm WeatherDisplay:10.37 W/m2 -RA
12:39 6.7 °C 5.1 °C 1028 hPa Calm     89% 1.52 mm WeatherDisplay:10.37 W/m2 -RA
12:44 6.7 °C 5.1 °C 1028 hPa Calm     89% 1.78 mm WeatherDisplay:10.37 W/m2 -RA
12:49 6.7 °C 5.2 °C 1028 hPa Calm     90% 2.29 mm WeatherDisplay:10.37 W/m2 -RA
12:54 6.6 °C 5.1 °C 1028 hPa Calm     90% 2.54 mm WeatherDisplay:10.37 W/m2 -RA
12:59 6.7 °C 5.2 °C 1028 hPa Calm     90% 2.54 mm WeatherDisplay:10.37 W/m2 -RA
13:04 6.7 °C 5.2 °C 1027.3 hPa Calm     90% 2.54 mm WeatherDisplay:10.37 W/m2 -RA
13:09 6.7 °C 5.3 °C 1027.3 hPa Calm     91% 2.29 mm WeatherDisplay:10.37 W/m2 -RA
13:14 6.8 °C 5.4 °C 1027.3 hPa Calm     91% 2.54 mm WeatherDisplay:10.37 W/m2 -RA
13:19 7 °C 5.6 °C 1027.3 hPa Calm     91% 2.29 mm WeatherDisplay:10.37 W/m2 -RA
13:24 7.1 °C 5.7 °C 1027.3 hPa Calm     91% 2.03 mm WeatherDisplay:10.37 W/m2 -RA
13:29 7.1 °C 5.7 °C 1027.3 hPa Calm     91% 1.78 mm WeatherDisplay:10.37 W/m2 -RA
13:34 7.2 °C 5.8 °C 1027.3 hPa Calm     91% 1.78 mm WeatherDisplay:10.37 W/m2 -RA
13:39 7.2 °C 5.8 °C 1027.3 hPa Calm     91% 1.52 mm WeatherDisplay:10.37 W/m2 -RA
13:44 7.3 °C 5.9 °C 1027.3 hPa Calm     91% 1.27 mm WeatherDisplay:10.37 W/m2 -RA
13:49 7.3 °C 5.9 °C 1027.3 hPa West 1.9 km/h   91% 0.76 mm WeatherDisplay:10.37 W/m2 -RA
13:54 7.4 °C 6.2 °C 1026.6 hPa Calm     92% 0.25 mm WeatherDisplay:10.37 W/m2 -DZ
13:59 7.5 °C 6.1 °C 1026.6 hPa Calm     91% 0.25 mm WeatherDisplay:10.37 W/m2 -DZ
14:04 7.4 °C 6.1 °C 1026.6 hPa WNW 1.9 km/h   91% 0.25 mm WeatherDisplay:10.37 W/m2 -DZ
14:09 7.5 °C 6.1 °C 1026.6 hPa Calm     91% 0.25 mm WeatherDisplay:10.37 W/m2 -DZ
14:15 7.7 °C 6.4 °C 1026.6 hPa Calm   1.6 km/h 92% 0 mm WeatherDisplay:10.37 W/m2 -DZ
14:20 7.8 °C 6.6 °C 1026.6 hPa Calm     92% 0 mm WeatherDisplay:10.37 W/m2 -DZ
14:25 7.7 °C 6.3 °C 1026.3 hPa Calm   1.6 km/h 91% 0 mm WeatherDisplay:10.37 W/m2 OVC
14:30 7.7 °C 6.3 °C 1026.3 hPa Calm   0.2 km/h 91% 0 mm WeatherDisplay:10.37 W/m2 OVC
14:35 7.7 °C 6.3 °C 1026.3 hPa Calm   1.6 km/h 91% 0 mm WeatherDisplay:10.37 W/m2 OVC
14:40 7.7 °C 6.3 °C 1026.3 hPa Calm   1.6 km/h 91% 0 mm WeatherDisplay:10.37 W/m2 OVC
14:45 7.7 °C 6.3 °C 1026.3 hPa Calm   1.6 km/h 91% 0 mm WeatherDisplay:10.37 W/m2 OVC
14:50 7.8 °C 6.4 °C 1026.3 hPa Calm   1.6 km/h 91% 0 mm WeatherDisplay:10.37 W/m2 OVC
14:55 7.8 °C 6.4 °C 1026.3 hPa Calm   1.6 km/h 91% 0 mm WeatherDisplay:10.37 W/m2 OVC
15:00 7.8 °C 6.5 °C 1026.3 hPa Calm   3.2 km/h 91% 0 mm WeatherDisplay:10.37 W/m2 OVC
15:05 7.9 °C 6.5 °C 1026 hPa Calm     91% 0 mm WeatherDisplay:10.37 W/m2 OVC
15:10 7.9 °C 6.5 °C 1026 hPa Calm   1.6 km/h 91% 0 mm WeatherDisplay:10.37 W/m2 OVC
15:15 7.8 °C 6.4 °C 1026 hPa Calm     91% 0 mm WeatherDisplay:10.37 W/m2 OVC
15:20 7.9 °C 6.5 °C 1026 hPa Calm     91% 0 mm WeatherDisplay:10.37 W/m2 OVC
15:25 7.9 °C 6.6 °C 1026 hPa Calm     91% 0 mm WeatherDisplay:10.37 W/m2 OVC
15:30 8 °C 6.6 °C 1026 hPa Calm     91% 0 mm WeatherDisplay:10.37 W/m2 OVC
15:35 8.1 °C 6.7 °C 1026 hPa Calm     91% 0 mm WeatherDisplay:10.37 W/m2 OVC
15:38 8.1 °C 6.7 °C 1026 hPa Calm     91% 0 mm WeatherDisplay:10.37 W/m2 OVC
15:43 8.2 °C 6.8 °C 1026 hPa Calm     91% 0 mm WeatherDisplay:10.37 W/m2 OVC
15:48 8.1 °C 6.6 °C 1026 hPa Calm     90% 0 mm WeatherDisplay:10.37 W/m2 OVC
15:53 8.2 °C 6.6 °C 1026 hPa Calm     90% 0 mm WeatherDisplay:10.37 W/m2 OVC
15:58 8.3 °C 6.9 °C 1026 hPa Calm     91% 0 mm WeatherDisplay:10.37 W/m2 OVC
16:03 8.4 °C 7 °C 1026.3 hPa Calm     91% 0 mm WeatherDisplay:10.37 W/m2 OVC
16:09 8.4 °C 6.8 °C 1026.3 hPa Calm     90% 0 mm WeatherDisplay:10.37 W/m2 OVC
16:14 8.4 °C 6.8 °C 1026.3 hPa Calm     90% 0 mm WeatherDisplay:10.37 W/m2 OVC
16:19 8.4 °C 6.8 °C 1026.3 hPa Calm     90% 0 mm WeatherDisplay:10.37 W/m2 OVC
16:23 8.4 °C 6.9 °C 1026.3 hPa Calm     90% 0 mm WeatherDisplay:10.37 W/m2 OVC
16:24 8.4 °C 6.9 °C 1026.3 hPa WNW 1.9 km/h 1.9 km/h 90% 0 mm WeatherDisplay:10.37 W/m2 OVC
16:29 8.4 °C 6.9 °C 1026.3 hPa WNW 1.9 km/h   90% 0 mm WeatherDisplay:10.37 W/m2 OVC
16:34 8.5 °C 6.9 °C 1026.3 hPa Calm     90% 0 mm WeatherDisplay:10.37 W/m2 OVC
16:39 8.5 °C 6.9 °C 1026.3 hPa Calm     90% 0 mm WeatherDisplay:10.37 W/m2 OVC
16:44 8.4 °C 6.9 °C 1026.3 hPa Calm     90% 0 mm WeatherDisplay:10.37 W/m2 OVC
16:49 8.4 °C 6.9 °C 1026.3 hPa Calm     90% 0 mm WeatherDisplay:10.37 W/m2 OVC
16:54 8.4 °C 6.9 °C 1026.3 hPa Calm     90% 0 mm WeatherDisplay:10.37 W/m2 OVC
16:59 8.4 °C 6.9 °C 1026.3 hPa Calm     90% 0 mm WeatherDisplay:10.37 W/m2 OVC
17:04 8.4 °C 6.8 °C 1025.6 hPa Calm     90% 0 mm WeatherDisplay:10.37 W/m2 OVC
17:09 8.4 °C 6.8 °C 1025.6 hPa Calm     90% 0 mm WeatherDisplay:10.37 W/m2 OVC
17:14 8.4 °C 6.8 °C 1025.6 hPa Calm     90% 0 mm WeatherDisplay:10.37 W/m2 OVC
17:19 8.4 °C 6.8 °C 1025.6 hPa Calm     90% 0 mm WeatherDisplay:10.37 W/m2 OVC
17:24 8.4 °C 6.8 °C 1025.6 hPa Calm     90% 0 mm WeatherDisplay:10.37 W/m2 OVC
17:29 8.4 °C 6.8 °C 1025.6 hPa Calm     90% 0 mm WeatherDisplay:10.37 W/m2 OVC
17:34 8.3 °C 6.8 °C 1025.6 hPa Calm     90% 0 mm WeatherDisplay:10.37 W/m2 OVC
17:39 8.3 °C 6.8 °C 1025.6 hPa Calm     90% 0 mm WeatherDisplay:10.37 W/m2 OVC
17:45 8.3 °C 6.8 °C 1026 hPa Calm     90% 0 mm WeatherDisplay:10.37 W/m2 OVC
17:50 8.3 °C 6.8 °C 1026 hPa Calm     90% 0 mm WeatherDisplay:10.37 W/m2 OVC
17:55 8.3 °C 6.9 °C 1026 hPa Calm     91% 0 mm WeatherDisplay:10.37 W/m2 OVC
18:00 8.3 °C 7 °C 1026 hPa Calm     91% 0 mm WeatherDisplay:10.37 W/m2 OVC
18:05 8.3 °C 6.9 °C 1026.3 hPa West 1.6 km/h   91% 0 mm WeatherDisplay:10.37 W/m2 OVC
18:10 8.3 °C 6.9 °C 1026.3 hPa Calm   1.6 km/h 91% 0 mm WeatherDisplay:10.37 W/m2 OVC
18:15 8.3 °C 6.9 °C 1026.3 hPa Calm     91% 0 mm WeatherDisplay:10.37 W/m2 OVC
18:20 8.2 °C 6.8 °C 1026.3 hPa Calm     91% 0 mm WeatherDisplay:10.37 W/m2 OVC
18:25 8.2 °C 6.8 °C 1026.3 hPa Calm     91% 0 mm WeatherDisplay:10.37 W/m2 OVC
18:30 8.2 °C 6.8 °C 1026.3 hPa Calm     91% 0 mm WeatherDisplay:10.37 W/m2 OVC
18:35 8.2 °C 6.8 °C 1026.6 hPa Calm     91% 0 mm WeatherDisplay:10.37 W/m2 OVC
18:40 8.2 °C 6.8 °C 1026.6 hPa Calm     91% 0 mm WeatherDisplay:10.37 W/m2 OVC
18:45 8.3 °C 6.9 °C 1026.6 hPa Calm     91% 0 mm WeatherDisplay:10.37 W/m2 OVC
18:50 8.3 °C 6.9 °C 1026.6 hPa Calm     91% 0 mm WeatherDisplay:10.37 W/m2 OVC
18:55 8.3 °C 6.9 °C 1026.6 hPa Calm     91% 0 mm WeatherDisplay:10.37 W/m2 OVC
19:00 8.3 °C 6.9 °C 1026.6 hPa Calm     91% 0 mm WeatherDisplay:10.37 W/m2 OVC
19:05 8.3 °C 6.9 °C 1027 hPa Calm     91% 0 mm WeatherDisplay:10.37 W/m2 OVC
19:10 8.3 °C 6.9 °C 1027 hPa Calm     91% 0 mm WeatherDisplay:10.37 W/m2 OVC
19:15 8.3 °C 7.1 °C 1027 hPa Calm     92% 0 mm WeatherDisplay:10.37 W/m2 OVC
19:20 8.3 °C 7.1 °C 1027 hPa Calm     92% 0 mm WeatherDisplay:10.37 W/m2 OVC
19:25 8.3 °C 6.9 °C 1027 hPa Calm     91% 0 mm WeatherDisplay:10.37 W/m2 OVC
19:30 8.3 °C 7.1 °C 1027 hPa Calm     92% 0 mm WeatherDisplay:10.37 W/m2 OVC
19:35 8.3 °C 7.1 °C 1027 hPa Calm     92% 0 mm WeatherDisplay:10.37 W/m2 OVC
19:40 8.3 °C 7.1 °C 1027 hPa Calm     92% 0 mm WeatherDisplay:10.37 W/m2 OVC
19:45 8.3 °C 7.1 °C 1027 hPa Calm     92% 0 mm WeatherDisplay:10.37 W/m2 OVC
19:50 8.3 °C 7.1 °C 1027 hPa Calm     92% 0 mm WeatherDisplay:10.37 W/m2 OVC
19:55 8.3 °C 7.1 °C 1027 hPa Calm     92% 0 mm WeatherDisplay:10.37 W/m2 OVC
20:00 8.3 °C 7.1 °C 1027 hPa Calm     92% 0 mm WeatherDisplay:10.37 W/m2 OVC
20:05 8.3 °C 7.1 °C 1027 hPa Calm     92% 0 mm WeatherDisplay:10.37 W/m2 OVC
20:10 8.3 °C 7.1 °C 1027 hPa Calm     92% 0 mm WeatherDisplay:10.37 W/m2 OVC
20:15 8.3 °C 7.1 °C 1027 hPa Calm     92% 0 mm WeatherDisplay:10.37 W/m2 OVC
20:20 8.4 °C 7.2 °C 1027 hPa Calm     92% 0 mm WeatherDisplay:10.37 W/m2 OVC
20:25 8.4 °C 7.2 °C 1027 hPa Calm     92% 0 mm WeatherDisplay:10.37 W/m2 OVC
20:30 8.4 °C 7.2 °C 1027 hPa Calm     92% 0 mm WeatherDisplay:10.37 W/m2 OVC
20:35 8.4 °C 7.2 °C 1027 hPa Calm     92% 0 mm WeatherDisplay:10.37 W/m2 OVC
20:40 8.4 °C 7.2 °C 1027 hPa Calm     92% 0 mm WeatherDisplay:10.37 W/m2 OVC
20:45 8.4 °C 7.2 °C 1027 hPa Calm     92% 0 mm WeatherDisplay:10.37 W/m2 OVC
20:51 8.4 °C 7.2 °C 1027 hPa Calm     92% 0 mm WeatherDisplay:10.37 W/m2 OVC
20:56 8.4 °C 7.2 °C 1027 hPa Calm     92% 0 mm WeatherDisplay:10.37 W/m2 OVC
21:01 8.4 °C 7.2 °C 1027 hPa Calm     92% 0 mm WeatherDisplay:10.37 W/m2 OVC
21:06 8.4 °C 7.2 °C 1027 hPa Calm     92% 0 mm WeatherDisplay:10.37 W/m2 OVC
21:11 8.4 °C 7.2 °C 1027 hPa Calm     92% 0 mm WeatherDisplay:10.37 W/m2 OVC
21:16 8.4 °C 7.2 °C 1027 hPa Calm     92% 0 mm WeatherDisplay:10.37 W/m2 OVC
21:21 8.4 °C 7.2 °C 1027 hPa Calm     92% 0 mm WeatherDisplay:10.37 W/m2 OVC
21:26 8.4 °C 7.2 °C 1027 hPa Calm     92% 0 mm WeatherDisplay:10.37 W/m2 OVC
21:31 8.4 °C 7.2 °C 1027 hPa Calm     92% 0 mm WeatherDisplay:10.37 W/m2 OVC
21:36 8.4 °C 7.2 °C 1027 hPa Calm     92% 0 mm WeatherDisplay:10.37 W/m2 OVC
21:41 8.4 °C 7.2 °C 1027 hPa Calm     92% 0 mm WeatherDisplay:10.37 W/m2 RA
21:46 8.4 °C 7.2 °C 1027 hPa Calm     92% 0 mm WeatherDisplay:10.37 W/m2 OVC
21:51 8.4 °C 7.2 °C 1027 hPa Calm     92% 0 mm WeatherDisplay:10.37 W/m2 OVC
21:56 8.4 °C 7.2 °C 1027 hPa Calm     92% 0 mm WeatherDisplay:10.37 W/m2 OVC
22:01 8.5 °C 7.3 °C 1027 hPa Calm     92% 0 mm WeatherDisplay:10.37 W/m2 OVC
22:06 8.5 °C 7.3 °C 1027 hPa Calm     92% 0 mm WeatherDisplay:10.37 W/m2 OVC
22:17 8.5 °C 7.3 °C 1027 hPa Calm     92% 0 mm WeatherDisplay:10.37 W/m2 OVC
22:21 8.4 °C 7.2 °C 1027 hPa Calm     92% 0 mm WeatherDisplay:10.37 W/m2 OVC
22:23 8.5 °C 7.3 °C 1027 hPa Calm     92% 0 mm WeatherDisplay:10.37 W/m2 OVC
22:28 8.5 °C 7.3 °C 1027 hPa Calm     92% 0 mm WeatherDisplay:10.37 W/m2 OVC
22:29 8.5 °C 7.3 °C 1027 hPa Calm     92% 0 mm WeatherDisplay:10.37 W/m2 OVC
22:34 8.5 °C 7.3 °C 1027 hPa Calm     92% 0 mm WeatherDisplay:10.37 W/m2 OVC
22:39 8.5 °C 7.3 °C 1027 hPa Calm     92% 0 mm WeatherDisplay:10.37 W/m2 OVC
22:44 8.5 °C 7.3 °C 1027 hPa Calm     92% 0 mm WeatherDisplay:10.37 W/m2 OVC
22:49 8.5 °C 7.3 °C 1027 hPa Calm     92% 0 mm WeatherDisplay:10.37 W/m2 OVC
22:54 8.5 °C 7.3 °C 1027 hPa Calm     92% 0 mm WeatherDisplay:10.37 W/m2 OVC
22:59 8.5 °C 7.3 °C 1027 hPa Calm     92% 0 mm WeatherDisplay:10.37 W/m2 OVC
23:04 8.5 °C 7.3 °C 1027 hPa Calm     92% 0 mm WeatherDisplay:10.37 W/m2 OVC
23:09 8.5 °C 7.3 °C 1027 hPa Calm     92% 0 mm WeatherDisplay:10.37 W/m2 OVC
23:14 8.5 °C 7.3 °C 1027 hPa Calm     92% 0 mm WeatherDisplay:10.37 W/m2 OVC
23:19 8.4 °C 7.2 °C 1027 hPa Calm     92% 0 mm WeatherDisplay:10.37 W/m2 OVC
23:24 8.4 °C 7.2 °C 1027 hPa Calm     92% 0 mm WeatherDisplay:10.37 W/m2 OVC
23:30 8.3 °C 7.1 °C 1027 hPa Calm     92% 0 mm WeatherDisplay:10.37 W/m2 OVC
23:35 8.3 °C 7.1 °C 1027 hPa Calm     92% 0 mm WeatherDisplay:10.37 W/m2 OVC
23:45 8.1 °C 6.9 °C 1027 hPa Calm     92% 0 mm WeatherDisplay:10.37 W/m2 OVC
23:50 8 °C 6.8 °C 1027 hPa Calm     92% 0 mm WeatherDisplay:10.37 W/m2 OVC
23:55 7.9 °C 6.7 °C 1027 hPa Calm     92% 0 mm WeatherDisplay:10.37 W/m2 OVC
Piedmont Bend
Compliments of Weather Underground - 4 mb